sensor_id;sensor_type;location;lat;lon;timestamp;P1;durP1;ratioP1;P2;durP2;ratioP2
1128;SDS011;553;51.038;7.216;2023-02-01T00:01:07;28.83;;;14.90;;
1128;SDS011;553;51.038;7.216;2023-02-01T00:03:34;42.00;;;15.17;;
1128;SDS011;553;51.038;7.216;2023-02-01T00:06:01;29.63;;;15.67;;
1128;SDS011;553;51.038;7.216;2023-02-01T00:08:29;28.73;;;14.80;;
1128;SDS011;553;51.038;7.216;2023-02-01T00:11:03;28.90;;;13.70;;
1128;SDS011;553;51.038;7.216;2023-02-01T00:13:32;34.57;;;14.40;;
1128;SDS011;553;51.038;7.216;2023-02-01T00:18:33;22.90;;;13.53;;
1128;SDS011;553;51.038;7.216;2023-02-01T00:21:00;34.53;;;12.50;;
1128;SDS011;553;51.038;7.216;2023-02-01T00:23:27;21.77;;;10.63;;
1128;SDS011;553;51.038;7.216;2023-02-01T00:25:53;29.27;;;13.47;;
1128;SDS011;553;51.038;7.216;2023-02-01T00:28:20;24.37;;;10.93;;
1128;SDS011;553;51.038;7.216;2023-02-01T00:30:47;23.90;;;11.67;;
1128;SDS011;553;51.038;7.216;2023-02-01T00:33:26;22.37;;;10.80;;
1128;SDS011;553;51.038;7.216;2023-02-01T00:35:57;45.77;;;14.87;;
1128;SDS011;553;51.038;7.216;2023-02-01T00:38:25;27.20;;;12.20;;
1128;SDS011;553;51.038;7.216;2023-02-01T00:40:52;30.43;;;10.60;;
1128;SDS011;553;51.038;7.216;2023-02-01T00:43:20;22.43;;;11.83;;
1128;SDS011;553;51.038;7.216;2023-02-01T00:45:47;22.77;;;10.80;;
1128;SDS011;553;51.038;7.216;2023-02-01T00:48:13;21.73;;;11.80;;
1128;SDS011;553;51.038;7.216;2023-02-01T00:50:43;20.87;;;11.73;;
1128;SDS011;553;51.038;7.216;2023-02-01T00:53:10;21.97;;;11.47;;
1128;SDS011;553;51.038;7.216;2023-02-01T00:55:37;26.50;;;12.07;;
1128;SDS011;553;51.038;7.216;2023-02-01T00:58:04;21.73;;;10.70;;
1128;SDS011;553;51.038;7.216;2023-02-01T01:00:32;30.50;;;12.63;;
1128;SDS011;553;51.038;7.216;2023-02-01T01:02:59;28.53;;;11.83;;
1128;SDS011;553;51.038;7.216;2023-02-01T01:05:25;33.03;;;12.63;;
1128;SDS011;553;51.038;7.216;2023-02-01T01:07:53;27.47;;;11.17;;
1128;SDS011;553;51.038;7.216;2023-02-01T01:10:20;26.50;;;11.37;;
1128;SDS011;553;51.038;7.216;2023-02-01T01:12:47;24.50;;;11.13;;
1128;SDS011;553;51.038;7.216;2023-02-01T01:15:14;25.70;;;10.53;;
1128;SDS011;553;51.038;7.216;2023-02-01T01:17:41;28.47;;;10.57;;
1128;SDS011;553;51.038;7.216;2023-02-01T01:20:08;27.97;;;11.07;;
1128;SDS011;553;51.038;7.216;2023-02-01T01:22:35;23.53;;;10.97;;
1128;SDS011;553;51.038;7.216;2023-02-01T01:25:02;18.03;;;9.00;;
1128;SDS011;553;51.038;7.216;2023-02-01T01:27:29;20.33;;;9.80;;
1128;SDS011;553;51.038;7.216;2023-02-01T01:29:56;22.80;;;8.70;;
1128;SDS011;553;51.038;7.216;2023-02-01T01:32:23;21.33;;;7.07;;
1128;SDS011;553;51.038;7.216;2023-02-01T01:34:50;21.03;;;7.40;;
1128;SDS011;553;51.038;7.216;2023-02-01T01:37:16;18.43;;;6.90;;
1128;SDS011;553;51.038;7.216;2023-02-01T01:39:43;18.17;;;7.00;;
1128;SDS011;553;51.038;7.216;2023-02-01T01:42:11;25.43;;;6.37;;
1128;SDS011;553;51.038;7.216;2023-02-01T01:47:26;14.53;;;5.00;;
1128;SDS011;553;51.038;7.216;2023-02-01T01:49:55;18.60;;;5.50;;
1128;SDS011;553;51.038;7.216;2023-02-01T01:52:22;23.90;;;5.77;;
1128;SDS011;553;51.038;7.216;2023-02-01T01:54:50;21.97;;;5.70;;
1128;SDS011;553;51.038;7.216;2023-02-01T01:57:20;21.43;;;6.30;;
1128;SDS011;553;51.038;7.216;2023-02-01T02:00:17;17.80;;;5.40;;
1128;SDS011;553;51.038;7.216;2023-02-01T02:02:45;10.83;;;4.30;;
1128;SDS011;553;51.038;7.216;2023-02-01T02:05:17;24.87;;;4.23;;
1128;SDS011;553;51.038;7.216;2023-02-01T02:07:46;13.60;;;4.97;;
1128;SDS011;553;51.038;7.216;2023-02-01T02:10:16;14.33;;;5.47;;
1128;SDS011;553;51.038;7.216;2023-02-01T02:12:44;23.30;;;5.13;;
1128;SDS011;553;51.038;7.216;2023-02-01T02:15:14;14.03;;;5.50;;
1128;SDS011;553;51.038;7.216;2023-02-01T02:17:55;16.27;;;5.37;;
1128;SDS011;553;51.038;7.216;2023-02-01T02:20:43;20.83;;;4.53;;
1128;SDS011;553;51.038;7.216;2023-02-01T02:26:37;13.10;;;5.07;;
1128;SDS011;553;51.038;7.216;2023-02-01T02:32:24;14.50;;;5.33;;
1128;SDS011;553;51.038;7.216;2023-02-01T02:35:08;17.47;;;6.70;;
1128;SDS011;553;51.038;7.216;2023-02-01T02:38:01;16.47;;;5.70;;
1128;SDS011;553;51.038;7.216;2023-02-01T02:40:49;15.13;;;4.63;;
1128;SDS011;553;51.038;7.216;2023-02-01T02:43:31;16.90;;;3.97;;
1128;SDS011;553;51.038;7.216;2023-02-01T02:46:32;16.00;;;3.90;;
1128;SDS011;553;51.038;7.216;2023-02-01T02:52:03;15.73;;;4.80;;
1128;SDS011;553;51.038;7.216;2023-02-01T02:54:55;16.27;;;4.57;;
1128;SDS011;553;51.038;7.216;2023-02-01T02:57:31;25.17;;;5.50;;
1128;SDS011;553;51.038;7.216;2023-02-01T03:00:24;17.97;;;4.67;;
1128;SDS011;553;51.038;7.216;2023-02-01T03:03:15;17.57;;;5.57;;
1128;SDS011;553;51.038;7.216;2023-02-01T03:06:01;16.13;;;4.30;;
1128;SDS011;553;51.038;7.216;2023-02-01T03:08:28;15.27;;;4.20;;
1128;SDS011;553;51.038;7.216;2023-02-01T03:21:38;13.50;;;4.10;;
1128;SDS011;553;51.038;7.216;2023-02-01T03:24:17;10.33;;;4.40;;
1128;SDS011;553;51.038;7.216;2023-02-01T03:26:48;21.40;;;5.50;;
1128;SDS011;553;51.038;7.216;2023-02-01T03:29:25;13.47;;;4.90;;
1128;SDS011;553;51.038;7.216;2023-02-01T03:31:57;15.27;;;5.10;;
1128;SDS011;553;51.038;7.216;2023-02-01T03:34:24;17.23;;;4.70;;
1128;SDS011;553;51.038;7.216;2023-02-01T03:37:05;15.17;;;6.13;;
1128;SDS011;553;51.038;7.216;2023-02-01T03:42:21;16.53;;;5.20;;
1128;SDS011;553;51.038;7.216;2023-02-01T03:45:07;19.03;;;5.20;;
1128;SDS011;553;51.038;7.216;2023-02-01T03:47:39;11.13;;;5.10;;
1128;SDS011;553;51.038;7.216;2023-02-01T03:50:09;23.30;;;5.60;;
1128;SDS011;553;51.038;7.216;2023-02-01T03:52:42;19.43;;;4.97;;
1128;SDS011;553;51.038;7.216;2023-02-01T03:55:14;22.67;;;8.60;;
1128;SDS011;553;51.038;7.216;2023-02-01T03:57:43;20.73;;;5.60;;
1128;SDS011;553;51.038;7.216;2023-02-01T04:00:16;18.73;;;5.50;;
1128;SDS011;553;51.038;7.216;2023-02-01T04:02:49;28.17;;;7.77;;
1128;SDS011;553;51.038;7.216;2023-02-01T04:05:17;18.63;;;5.77;;
1128;SDS011;553;51.038;7.216;2023-02-01T04:07:52;18.67;;;6.67;;
1128;SDS011;553;51.038;7.216;2023-02-01T04:10:20;16.47;;;5.70;;
1128;SDS011;553;51.038;7.216;2023-02-01T04:12:47;17.30;;;6.40;;
1128;SDS011;553;51.038;7.216;2023-02-01T04:15:14;13.00;;;5.30;;
1128;SDS011;553;51.038;7.216;2023-02-01T04:17:40;16.73;;;6.40;;
1128;SDS011;553;51.038;7.216;2023-02-01T04:20:08;14.40;;;6.40;;
1128;SDS011;553;51.038;7.216;2023-02-01T04:22:35;14.63;;;6.23;;
1128;SDS011;553;51.038;7.216;2023-02-01T04:25:02;18.37;;;5.60;;
1128;SDS011;553;51.038;7.216;2023-02-01T04:27:31;15.30;;;6.17;;
1128;SDS011;553;51.038;7.216;2023-02-01T04:29:58;19.43;;;7.00;;
1128;SDS011;553;51.038;7.216;2023-02-01T04:32:25;21.70;;;4.90;;
1128;SDS011;553;51.038;7.216;2023-02-01T04:34:51;15.63;;;6.43;;
1128;SDS011;553;51.038;7.216;2023-02-01T04:37:18;17.57;;;5.50;;
1128;SDS011;553;51.038;7.216;2023-02-01T04:39:45;20.47;;;7.60;;
1128;SDS011;553;51.038;7.216;2023-02-01T04:42:12;14.87;;;6.53;;
1128;SDS011;553;51.038;7.216;2023-02-01T04:44:38;21.57;;;5.87;;
1128;SDS011;553;51.038;7.216;2023-02-01T04:47:08;23.60;;;6.30;;
1128;SDS011;553;51.038;7.216;2023-02-01T04:49:35;14.00;;;5.40;;
1128;SDS011;553;51.038;7.216;2023-02-01T04:52:02;15.50;;;6.50;;
1128;SDS011;553;51.038;7.216;2023-02-01T04:54:29;15.30;;;7.10;;
1128;SDS011;553;51.038;7.216;2023-02-01T04:56:56;17.20;;;6.30;;
1128;SDS011;553;51.038;7.216;2023-02-01T04:59:23;28.07;;;6.10;;
1128;SDS011;553;51.038;7.216;2023-02-01T05:01:49;19.60;;;6.17;;
1128;SDS011;553;51.038;7.216;2023-02-01T05:04:16;12.37;;;5.90;;
1128;SDS011;553;51.038;7.216;2023-02-01T05:06:44;21.17;;;5.67;;
1128;SDS011;553;51.038;7.216;2023-02-01T05:09:11;20.50;;;6.07;;
1128;SDS011;553;51.038;7.216;2023-02-01T05:11:38;19.30;;;5.30;;
1128;SDS011;553;51.038;7.216;2023-02-01T05:14:23;22.33;;;5.53;;
1128;SDS011;553;51.038;7.216;2023-02-01T05:16:50;16.93;;;4.80;;
1128;SDS011;553;51.038;7.216;2023-02-01T05:19:17;18.93;;;4.97;;
1128;SDS011;553;51.038;7.216;2023-02-01T05:21:45;15.03;;;5.60;;
1128;SDS011;553;51.038;7.216;2023-02-01T05:24:11;17.60;;;4.87;;
1128;SDS011;553;51.038;7.216;2023-02-01T05:26:47;16.20;;;5.33;;
1128;SDS011;553;51.038;7.216;2023-02-01T05:29:15;20.53;;;5.60;;
1128;SDS011;553;51.038;7.216;2023-02-01T05:31:44;21.80;;;4.93;;
1128;SDS011;553;51.038;7.216;2023-02-01T05:34:12;13.87;;;4.60;;
1128;SDS011;553;51.038;7.216;2023-02-01T05:36:39;16.07;;;5.50;;
1128;SDS011;553;51.038;7.216;2023-02-01T05:39:06;17.37;;;5.07;;
1128;SDS011;553;51.038;7.216;2023-02-01T05:41:33;22.53;;;4.33;;
1128;SDS011;553;51.038;7.216;2023-02-01T05:44:00;18.57;;;5.57;;
1128;SDS011;553;51.038;7.216;2023-02-01T05:46:28;13.50;;;4.90;;
1128;SDS011;553;51.038;7.216;2023-02-01T05:48:54;15.20;;;5.20;;
1128;SDS011;553;51.038;7.216;2023-02-01T05:51:21;11.70;;;5.50;;
1128;SDS011;553;51.038;7.216;2023-02-01T05:53:48;18.47;;;5.20;;
1128;SDS011;553;51.038;7.216;2023-02-01T05:56:14;11.97;;;4.00;;
1128;SDS011;553;51.038;7.216;2023-02-01T05:58:41;18.83;;;5.03;;
1128;SDS011;553;51.038;7.216;2023-02-01T06:01:08;17.30;;;5.00;;
1128;SDS011;553;51.038;7.216;2023-02-01T06:03:34;13.53;;;4.80;;
1128;SDS011;553;51.038;7.216;2023-02-01T06:06:01;22.47;;;5.50;;
1128;SDS011;553;51.038;7.216;2023-02-01T06:08:28;17.13;;;4.10;;
1128;SDS011;553;51.038;7.216;2023-02-01T06:11:02;19.10;;;5.30;;
1128;SDS011;553;51.038;7.216;2023-02-01T06:13:30;17.37;;;4.37;;
1128;SDS011;553;51.038;7.216;2023-02-01T06:16:00;16.20;;;4.67;;
1128;SDS011;553;51.038;7.216;2023-02-01T06:18:28;20.57;;;5.13;;
1128;SDS011;553;51.038;7.216;2023-02-01T06:20:56;15.10;;;4.60;;
1128;SDS011;553;51.038;7.216;2023-02-01T06:23:26;13.57;;;4.67;;
1128;SDS011;553;51.038;7.216;2023-02-01T06:25:57;13.10;;;4.87;;
1128;SDS011;553;51.038;7.216;2023-02-01T06:28:30;16.37;;;5.47;;
1128;SDS011;553;51.038;7.216;2023-02-01T06:30:57;15.97;;;5.37;;
1128;SDS011;553;51.038;7.216;2023-02-01T06:33:29;21.13;;;5.43;;
1128;SDS011;553;51.038;7.216;2023-02-01T06:36:00;23.30;;;5.10;;
1128;SDS011;553;51.038;7.216;2023-02-01T06:38:28;20.03;;;8.43;;
1128;SDS011;553;51.038;7.216;2023-02-01T06:40:55;18.83;;;5.30;;
1128;SDS011;553;51.038;7.216;2023-02-01T06:43:22;19.03;;;4.00;;
1128;SDS011;553;51.038;7.216;2023-02-01T06:45:50;11.30;;;3.80;;
1128;SDS011;553;51.038;7.216;2023-02-01T06:48:18;18.13;;;4.60;;
1128;SDS011;553;51.038;7.216;2023-02-01T06:50:45;20.40;;;4.57;;
1128;SDS011;553;51.038;7.216;2023-02-01T06:53:11;16.77;;;4.80;;
1128;SDS011;553;51.038;7.216;2023-02-01T06:55:39;12.70;;;3.87;;
1128;SDS011;553;51.038;7.216;2023-02-01T06:58:05;16.00;;;3.93;;
1128;SDS011;553;51.038;7.216;2023-02-01T07:00:32;10.07;;;4.40;;
1128;SDS011;553;51.038;7.216;2023-02-01T07:02:59;20.53;;;5.10;;
1128;SDS011;553;51.038;7.216;2023-02-01T07:05:26;19.10;;;7.70;;
1128;SDS011;553;51.038;7.216;2023-02-01T07:07:52;19.80;;;4.73;;
1128;SDS011;553;51.038;7.216;2023-02-01T07:10:19;13.63;;;4.60;;
1128;SDS011;553;51.038;7.216;2023-02-01T07:12:46;13.17;;;5.60;;
1128;SDS011;553;51.038;7.216;2023-02-01T07:15:13;19.00;;;5.00;;
1128;SDS011;553;51.038;7.216;2023-02-01T07:17:40;14.70;;;4.80;;
1128;SDS011;553;51.038;7.216;2023-02-01T07:20:07;16.27;;;4.90;;
1128;SDS011;553;51.038;7.216;2023-02-01T07:22:34;34.40;;;5.60;;
1128;SDS011;553;51.038;7.216;2023-02-01T07:25:01;15.50;;;5.63;;
1128;SDS011;553;51.038;7.216;2023-02-01T07:27:33;18.73;;;5.10;;
1128;SDS011;553;51.038;7.216;2023-02-01T07:30:01;16.40;;;5.17;;
1128;SDS011;553;51.038;7.216;2023-02-01T07:32:28;16.60;;;4.90;;
1128;SDS011;553;51.038;7.216;2023-02-01T07:34:56;13.33;;;4.67;;
1128;SDS011;553;51.038;7.216;2023-02-01T07:37:23;15.10;;;5.73;;
1128;SDS011;553;51.038;7.216;2023-02-01T07:39:50;16.00;;;5.67;;
1128;SDS011;553;51.038;7.216;2023-02-01T07:42:17;25.87;;;6.07;;
1128;SDS011;553;51.038;7.216;2023-02-01T07:44:44;25.83;;;5.60;;
1128;SDS011;553;51.038;7.216;2023-02-01T07:47:11;20.40;;;6.03;;
1128;SDS011;553;51.038;7.216;2023-02-01T07:49:38;15.63;;;5.30;;
1128;SDS011;553;51.038;7.216;2023-02-01T07:52:04;25.37;;;6.33;;
1128;SDS011;553;51.038;7.216;2023-02-01T07:54:31;18.53;;;5.60;;
1128;SDS011;553;51.038;7.216;2023-02-01T07:56:58;19.93;;;5.27;;
1128;SDS011;553;51.038;7.216;2023-02-01T07:59:24;20.60;;;5.00;;
1128;SDS011;553;51.038;7.216;2023-02-01T08:01:51;22.70;;;5.73;;
1128;SDS011;553;51.038;7.216;2023-02-01T08:04:18;24.63;;;5.13;;
1128;SDS011;553;51.038;7.216;2023-02-01T08:06:45;16.23;;;5.90;;
1128;SDS011;553;51.038;7.216;2023-02-01T08:09:11;19.23;;;5.60;;
1128;SDS011;553;51.038;7.216;2023-02-01T08:11:38;17.30;;;4.83;;
1128;SDS011;553;51.038;7.216;2023-02-01T08:14:05;16.00;;;5.07;;
1128;SDS011;553;51.038;7.216;2023-02-01T08:16:32;25.07;;;5.40;;
1128;SDS011;553;51.038;7.216;2023-02-01T08:19:02;16.80;;;6.00;;
1128;SDS011;553;51.038;7.216;2023-02-01T08:21:29;12.50;;;5.10;;
1128;SDS011;553;51.038;7.216;2023-02-01T08:24:06;14.57;;;4.23;;
1128;SDS011;553;51.038;7.216;2023-02-01T08:26:35;16.70;;;4.90;;
1128;SDS011;553;51.038;7.216;2023-02-01T08:29:04;17.97;;;4.50;;
1128;SDS011;553;51.038;7.216;2023-02-01T08:31:32;20.33;;;5.80;;
1128;SDS011;553;51.038;7.216;2023-02-01T08:34:00;20.70;;;4.70;;
1128;SDS011;553;51.038;7.216;2023-02-01T08:36:30;15.97;;;6.13;;
1128;SDS011;553;51.038;7.216;2023-02-01T08:38:57;26.43;;;6.40;;
1128;SDS011;553;51.038;7.216;2023-02-01T08:41:25;19.30;;;4.47;;
1128;SDS011;553;51.038;7.216;2023-02-01T08:43:53;30.87;;;6.27;;
1128;SDS011;553;51.038;7.216;2023-02-01T08:46:21;16.70;;;4.97;;
1128;SDS011;553;51.038;7.216;2023-02-01T08:48:48;22.93;;;6.10;;
1128;SDS011;553;51.038;7.216;2023-02-01T08:51:16;24.83;;;6.67;;
1128;SDS011;553;51.038;7.216;2023-02-01T08:53:45;24.00;;;9.23;;
1128;SDS011;553;51.038;7.216;2023-02-01T08:56:13;19.10;;;6.80;;
1128;SDS011;553;51.038;7.216;2023-02-01T08:58:41;14.77;;;5.80;;
1128;SDS011;553;51.038;7.216;2023-02-01T09:01:09;24.93;;;6.20;;
1128;SDS011;553;51.038;7.216;2023-02-01T09:03:39;12.87;;;5.73;;
1128;SDS011;553;51.038;7.216;2023-02-01T09:06:07;15.53;;;5.27;;
1128;SDS011;553;51.038;7.216;2023-02-01T09:08:36;15.90;;;5.13;;
1128;SDS011;553;51.038;7.216;2023-02-01T09:11:04;19.53;;;5.70;;
1128;SDS011;553;51.038;7.216;2023-02-01T09:13:33;22.53;;;6.13;;
1128;SDS011;553;51.038;7.216;2023-02-01T09:16:00;17.00;;;5.57;;
1128;SDS011;553;51.038;7.216;2023-02-01T09:18:27;24.17;;;7.60;;
1128;SDS011;553;51.038;7.216;2023-02-01T09:20:54;29.17;;;7.20;;
1128;SDS011;553;51.038;7.216;2023-02-01T09:23:20;30.13;;;8.33;;
1128;SDS011;553;51.038;7.216;2023-02-01T09:25:48;25.23;;;6.47;;
1128;SDS011;553;51.038;7.216;2023-02-01T09:28:17;18.03;;;5.60;;
1128;SDS011;553;51.038;7.216;2023-02-01T09:30:45;20.63;;;5.40;;
1128;SDS011;553;51.038;7.216;2023-02-01T09:33:11;16.10;;;5.50;;
1128;SDS011;553;51.038;7.216;2023-02-01T09:35:38;14.00;;;5.00;;
1128;SDS011;553;51.038;7.216;2023-02-01T09:38:05;24.57;;;6.00;;
1128;SDS011;553;51.038;7.216;2023-02-01T09:40:33;12.17;;;5.57;;
1128;SDS011;553;51.038;7.216;2023-02-01T09:43:07;22.23;;;5.53;;
1128;SDS011;553;51.038;7.216;2023-02-01T09:45:59;18.57;;;4.93;;
1128;SDS011;553;51.038;7.216;2023-02-01T09:48:33;19.23;;;4.97;;
1128;SDS011;553;51.038;7.216;2023-02-01T09:51:04;18.07;;;5.00;;
1128;SDS011;553;51.038;7.216;2023-02-01T09:53:38;18.17;;;5.63;;
1128;SDS011;553;51.038;7.216;2023-02-01T09:56:14;19.77;;;5.07;;
1128;SDS011;553;51.038;7.216;2023-02-01T09:58:49;14.97;;;5.20;;
1128;SDS011;553;51.038;7.216;2023-02-01T10:01:35;15.33;;;4.87;;
1128;SDS011;553;51.038;7.216;2023-02-01T10:04:05;25.93;;;5.73;;
1128;SDS011;553;51.038;7.216;2023-02-01T10:06:58;22.40;;;5.90;;
1128;SDS011;553;51.038;7.216;2023-02-01T10:17:53;22.80;;;5.90;;
1128;SDS011;553;51.038;7.216;2023-02-01T10:26:03;17.43;;;5.17;;
1128;SDS011;553;51.038;7.216;2023-02-01T10:28:41;20.00;;;6.33;;
1128;SDS011;553;51.038;7.216;2023-02-01T10:31:12;18.43;;;6.30;;
1128;SDS011;553;51.038;7.216;2023-02-01T10:33:44;27.13;;;6.90;;
1128;SDS011;553;51.038;7.216;2023-02-01T10:36:21;22.13;;;6.47;;
1128;SDS011;553;51.038;7.216;2023-02-01T10:38:59;20.33;;;5.90;;
1128;SDS011;553;51.038;7.216;2023-02-01T10:41:36;20.53;;;7.40;;
1128;SDS011;553;51.038;7.216;2023-02-01T10:44:07;14.90;;;6.50;;
1128;SDS011;553;51.038;7.216;2023-02-01T10:46:39;20.20;;;5.80;;
1128;SDS011;553;51.038;7.216;2023-02-01T10:49:09;17.90;;;5.57;;
1128;SDS011;553;51.038;7.216;2023-02-01T10:51:46;26.67;;;6.60;;
1128;SDS011;553;51.038;7.216;2023-02-01T10:54:20;16.40;;;6.10;;
1128;SDS011;553;51.038;7.216;2023-02-01T10:56:49;15.67;;;5.40;;
1128;SDS011;553;51.038;7.216;2023-02-01T10:59:20;22.87;;;6.37;;
1128;SDS011;553;51.038;7.216;2023-02-01T11:01:57;22.00;;;5.83;;
1128;SDS011;553;51.038;7.216;2023-02-01T11:04:26;16.40;;;5.90;;
1128;SDS011;553;51.038;7.216;2023-02-01T11:07:05;17.50;;;5.93;;
1128;SDS011;553;51.038;7.216;2023-02-01T11:09:42;20.20;;;5.17;;
1128;SDS011;553;51.038;7.216;2023-02-01T11:12:34;22.83;;;5.17;;
1128;SDS011;553;51.038;7.216;2023-02-01T11:15:23;19.20;;;5.43;;
1128;SDS011;553;51.038;7.216;2023-02-01T11:17:52;18.47;;;6.00;;
1128;SDS011;553;51.038;7.216;2023-02-01T11:22:58;18.63;;;6.30;;
1128;SDS011;553;51.038;7.216;2023-02-01T11:25:25;16.93;;;6.63;;
1128;SDS011;553;51.038;7.216;2023-02-01T11:27:53;25.60;;;5.20;;
1128;SDS011;553;51.038;7.216;2023-02-01T11:30:38;27.27;;;7.90;;
1128;SDS011;553;51.038;7.216;2023-02-01T11:33:12;14.70;;;4.77;;
1128;SDS011;553;51.038;7.216;2023-02-01T11:35:42;18.17;;;6.43;;
1128;SDS011;553;51.038;7.216;2023-02-01T11:38:20;16.20;;;5.43;;
1128;SDS011;553;51.038;7.216;2023-02-01T11:40:47;14.63;;;4.53;;
1128;SDS011;553;51.038;7.216;2023-02-01T11:43:24;16.23;;;6.27;;
1128;SDS011;553;51.038;7.216;2023-02-01T11:45:57;12.77;;;4.30;;
1128;SDS011;553;51.038;7.216;2023-02-01T11:48:26;13.50;;;5.20;;
1128;SDS011;553;51.038;7.216;2023-02-01T11:51:08;25.73;;;5.87;;
1128;SDS011;553;51.038;7.216;2023-02-01T11:57:14;17.70;;;5.30;;
1128;SDS011;553;51.038;7.216;2023-02-01T12:02:50;20.70;;;5.73;;
1128;SDS011;553;51.038;7.216;2023-02-01T12:05:25;19.50;;;6.53;;
1128;SDS011;553;51.038;7.216;2023-02-01T12:13:53;18.07;;;4.77;;
1128;SDS011;553;51.038;7.216;2023-02-01T12:16:29;21.27;;;6.60;;
1128;SDS011;553;51.038;7.216;2023-02-01T12:21:53;14.87;;;4.20;;
1128;SDS011;553;51.038;7.216;2023-02-01T12:25:12;24.43;;;5.60;;
1128;SDS011;553;51.038;7.216;2023-02-01T12:38:48;23.17;;;6.37;;
1128;SDS011;553;51.038;7.216;2023-02-01T12:44:35;20.03;;;5.40;;
1128;SDS011;553;51.038;7.216;2023-02-01T12:47:22;18.03;;;4.67;;
1128;SDS011;553;51.038;7.216;2023-02-01T12:49:58;14.60;;;5.53;;
1128;SDS011;553;51.038;7.216;2023-02-01T12:52:30;17.23;;;5.00;;
1128;SDS011;553;51.038;7.216;2023-02-01T12:58:06;19.10;;;5.00;;
1128;SDS011;553;51.038;7.216;2023-02-01T13:00:40;16.80;;;5.00;;
1128;SDS011;553;51.038;7.216;2023-02-01T13:03:32;17.90;;;4.50;;
1128;SDS011;553;51.038;7.216;2023-02-01T13:08:47;26.47;;;5.50;;
1128;SDS011;553;51.038;7.216;2023-02-01T13:11:38;21.37;;;5.70;;
1128;SDS011;553;51.038;7.216;2023-02-01T13:17:14;16.83;;;4.53;;
1128;SDS011;553;51.038;7.216;2023-02-01T13:19:56;44.13;;;21.13;;
1128;SDS011;553;51.038;7.216;2023-02-01T13:22:31;15.43;;;6.67;;
1128;SDS011;553;51.038;7.216;2023-02-01T13:25:12;17.30;;;7.50;;
1128;SDS011;553;51.038;7.216;2023-02-01T13:27:42;13.20;;;4.70;;
1128;SDS011;553;51.038;7.216;2023-02-01T13:41:52;18.17;;;7.33;;
1128;SDS011;553;51.038;7.216;2023-02-01T13:44:27;15.20;;;5.57;;
1128;SDS011;553;51.038;7.216;2023-02-01T13:47:01;17.77;;;5.30;;
1128;SDS011;553;51.038;7.216;2023-02-01T13:49:37;16.30;;;5.43;;
1128;SDS011;553;51.038;7.216;2023-02-01T13:52:05;12.50;;;4.00;;
1128;SDS011;553;51.038;7.216;2023-02-01T13:54:43;10.20;;;4.70;;
1128;SDS011;553;51.038;7.216;2023-02-01T13:57:28;11.37;;;5.10;;
1128;SDS011;553;51.038;7.216;2023-02-01T14:00:08;19.33;;;5.83;;
1128;SDS011;553;51.038;7.216;2023-02-01T14:13:30;12.70;;;4.23;;
1128;SDS011;553;51.038;7.216;2023-02-01T14:23:57;19.83;;;5.20;;
1128;SDS011;553;51.038;7.216;2023-02-01T14:29:01;7.47;;;3.93;;
1128;SDS011;553;51.038;7.216;2023-02-01T14:31:50;12.23;;;3.50;;
1128;SDS011;553;51.038;7.216;2023-02-01T14:44:55;16.97;;;6.07;;
1128;SDS011;553;51.038;7.216;2023-02-01T14:47:42;12.37;;;3.60;;
1128;SDS011;553;51.038;7.216;2023-02-01T14:52:39;17.30;;;4.90;;
1128;SDS011;553;51.038;7.216;2023-02-01T14:55:15;10.87;;;4.57;;
1128;SDS011;553;51.038;7.216;2023-02-01T14:57:52;12.50;;;3.40;;
1128;SDS011;553;51.038;7.216;2023-02-01T15:00:24;22.17;;;5.00;;
1128;SDS011;553;51.038;7.216;2023-02-01T15:02:53;14.60;;;3.60;;
1128;SDS011;553;51.038;7.216;2023-02-01T15:05:24;16.00;;;3.67;;
1128;SDS011;553;51.038;7.216;2023-02-01T15:07:56;15.73;;;4.20;;
1128;SDS011;553;51.038;7.216;2023-02-01T15:10:26;16.33;;;4.77;;
1128;SDS011;553;51.038;7.216;2023-02-01T15:12:56;11.20;;;3.70;;
1128;SDS011;553;51.038;7.216;2023-02-01T15:15:23;14.83;;;3.03;;
1128;SDS011;553;51.038;7.216;2023-02-01T15:17:52;15.03;;;4.17;;
1128;SDS011;553;51.038;7.216;2023-02-01T15:20:27;9.83;;;2.70;;
1128;SDS011;553;51.038;7.216;2023-02-01T15:22:57;16.37;;;3.27;;
1128;SDS011;553;51.038;7.216;2023-02-01T15:25:26;15.63;;;5.40;;
1128;SDS011;553;51.038;7.216;2023-02-01T15:27:55;13.37;;;3.90;;
1128;SDS011;553;51.038;7.216;2023-02-01T15:33:03;12.13;;;3.83;;
1128;SDS011;553;51.038;7.216;2023-02-01T15:35:51;19.70;;;4.73;;
1128;SDS011;553;51.038;7.216;2023-02-01T15:41:05;11.40;;;3.80;;
1128;SDS011;553;51.038;7.216;2023-02-01T15:43:43;15.00;;;4.10;;
1128;SDS011;553;51.038;7.216;2023-02-01T15:46:15;15.47;;;3.40;;
1128;SDS011;553;51.038;7.216;2023-02-01T15:48:48;15.10;;;3.60;;
1128;SDS011;553;51.038;7.216;2023-02-01T15:51:25;17.87;;;4.27;;
1128;SDS011;553;51.038;7.216;2023-02-01T15:53:59;17.27;;;4.17;;
1128;SDS011;553;51.038;7.216;2023-02-01T15:56:35;8.60;;;3.90;;
1128;SDS011;553;51.038;7.216;2023-02-01T15:59:04;11.53;;;4.33;;
1128;SDS011;553;51.038;7.216;2023-02-01T16:01:38;17.40;;;4.73;;
1128;SDS011;553;51.038;7.216;2023-02-01T16:06:53;10.03;;;3.60;;
1128;SDS011;553;51.038;7.216;2023-02-01T16:09:22;14.90;;;3.50;;
1128;SDS011;553;51.038;7.216;2023-02-01T16:11:58;12.17;;;4.30;;
1128;SDS011;553;51.038;7.216;2023-02-01T16:14:26;20.17;;;4.83;;
1128;SDS011;553;51.038;7.216;2023-02-01T16:16:54;10.27;;;3.73;;
1128;SDS011;553;51.038;7.216;2023-02-01T16:19:23;14.20;;;3.03;;
1128;SDS011;553;51.038;7.216;2023-02-01T16:21:54;12.93;;;3.50;;
1128;SDS011;553;51.038;7.216;2023-02-01T16:24:21;9.93;;;3.80;;
1128;SDS011;553;51.038;7.216;2023-02-01T16:26:51;8.53;;;3.10;;
1128;SDS011;553;51.038;7.216;2023-02-01T16:29:17;14.10;;;3.30;;
1128;SDS011;553;51.038;7.216;2023-02-01T16:31:44;9.47;;;3.27;;
1128;SDS011;553;51.038;7.216;2023-02-01T16:34:14;11.63;;;3.87;;
1128;SDS011;553;51.038;7.216;2023-02-01T16:36:49;18.93;;;4.93;;
1128;SDS011;553;51.038;7.216;2023-02-01T16:39:21;13.93;;;3.40;;
1128;SDS011;553;51.038;7.216;2023-02-01T16:41:48;12.03;;;3.67;;
1128;SDS011;553;51.038;7.216;2023-02-01T16:44:16;10.67;;;3.27;;
1128;SDS011;553;51.038;7.216;2023-02-01T16:46:43;12.73;;;3.10;;
1128;SDS011;553;51.038;7.216;2023-02-01T16:49:34;15.43;;;3.33;;
1128;SDS011;553;51.038;7.216;2023-02-01T16:51:59;12.23;;;3.77;;
1128;SDS011;553;51.038;7.216;2023-02-01T16:54:26;9.73;;;3.73;;
1128;SDS011;553;51.038;7.216;2023-02-01T16:56:53;21.23;;;4.67;;
1128;SDS011;553;51.038;7.216;2023-02-01T16:59:20;14.73;;;4.50;;
1128;SDS011;553;51.038;7.216;2023-02-01T17:01:47;8.80;;;4.10;;
1128;SDS011;553;51.038;7.216;2023-02-01T17:04:13;13.33;;;4.80;;
1128;SDS011;553;51.038;7.216;2023-02-01T17:06:42;15.30;;;4.93;;
1128;SDS011;553;51.038;7.216;2023-02-01T17:09:13;11.97;;;3.40;;
1128;SDS011;553;51.038;7.216;2023-02-01T17:11:40;22.97;;;4.97;;
1128;SDS011;553;51.038;7.216;2023-02-01T17:16:40;14.30;;;4.30;;
1128;SDS011;553;51.038;7.216;2023-02-01T17:19:14;22.90;;;5.53;;
1128;SDS011;553;51.038;7.216;2023-02-01T17:21:49;23.50;;;7.27;;
1128;SDS011;553;51.038;7.216;2023-02-01T17:24:19;19.30;;;5.47;;
1128;SDS011;553;51.038;7.216;2023-02-01T17:26:47;19.77;;;5.80;;
1128;SDS011;553;51.038;7.216;2023-02-01T17:29:17;13.87;;;4.23;;
1128;SDS011;553;51.038;7.216;2023-02-01T17:31:45;10.50;;;3.10;;
1128;SDS011;553;51.038;7.216;2023-02-01T17:34:20;14.17;;;4.00;;
1128;SDS011;553;51.038;7.216;2023-02-01T17:36:47;17.40;;;4.40;;
1128;SDS011;553;51.038;7.216;2023-02-01T17:39:14;19.67;;;5.60;;
1128;SDS011;553;51.038;7.216;2023-02-01T17:42:01;16.30;;;4.40;;
1128;SDS011;553;51.038;7.216;2023-02-01T17:44:28;21.13;;;5.63;;
1128;SDS011;553;51.038;7.216;2023-02-01T17:46:55;14.57;;;5.10;;
1128;SDS011;553;51.038;7.216;2023-02-01T17:49:24;18.63;;;4.70;;
1128;SDS011;553;51.038;7.216;2023-02-01T17:51:54;15.77;;;5.63;;
1128;SDS011;553;51.038;7.216;2023-02-01T17:54:22;20.30;;;4.23;;
1128;SDS011;553;51.038;7.216;2023-02-01T17:56:50;19.03;;;4.23;;
1128;SDS011;553;51.038;7.216;2023-02-01T17:59:18;17.23;;;4.40;;